sensor_id;sensor_type;location;lat;lon;timestamp;temperature;humidity
64501;DHT22;50874;24.150;-110.320;2023-03-19T00:00:15;27.90;95.60
64501;DHT22;50874;24.150;-110.320;2023-03-19T00:02:42;27.90;95.50
64501;DHT22;50874;24.150;-110.320;2023-03-19T00:05:14;28.10;94.60
64501;DHT22;50874;24.150;-110.320;2023-03-19T00:07:41;28.00;94.60
64501;DHT22;50874;24.150;-110.320;2023-03-19T00:10:08;28.00;94.60
64501;DHT22;50874;24.150;-110.320;2023-03-19T00:12:34;28.00;94.90
64501;DHT22;50874;24.150;-110.320;2023-03-19T00:15:02;27.90;95.20
64501;DHT22;50874;24.150;-110.320;2023-03-19T00:17:28;27.50;95.20
64501;DHT22;50874;24.150;-110.320;2023-03-19T00:19:55;27.60;95.40
64501;DHT22;50874;24.150;-110.320;2023-03-19T00:22:21;27.70;95.60
64501;DHT22;50874;24.150;-110.320;2023-03-19T00:24:48;27.70;95.50
64501;DHT22;50874;24.150;-110.320;2023-03-19T00:27:14;27.50;95.80
64501;DHT22;50874;24.150;-110.320;2023-03-19T00:29:43;27.60;95.90
64501;DHT22;50874;24.150;-110.320;2023-03-19T00:32:10;27.40;96.10
64501;DHT22;50874;24.150;-110.320;2023-03-19T00:34:36;27.40;96.20
64501;DHT22;50874;24.150;-110.320;2023-03-19T00:37:03;27.30;96.40
64501;DHT22;50874;24.150;-110.320;2023-03-19T00:39:29;27.30;96.50
64501;DHT22;50874;24.150;-110.320;2023-03-19T00:41:56;27.20;96.80
64501;DHT22;50874;24.150;-110.320;2023-03-19T00:44:22;26.90;97.10
64501;DHT22;50874;24.150;-110.320;2023-03-19T00:46:48;26.80;97.40
64501;DHT22;50874;24.150;-110.320;2023-03-19T00:49:15;26.50;97.50
64501;DHT22;50874;24.150;-110.320;2023-03-19T00:51:41;26.20;98.20
64501;DHT22;50874;24.150;-110.320;2023-03-19T00:54:10;26.10;98.30
64501;DHT22;50874;24.150;-110.320;2023-03-19T00:56:37;26.10;98.80
64501;DHT22;50874;24.150;-110.320;2023-03-19T00:59:04;25.90;99.60
64501;DHT22;50874;24.150;-110.320;2023-03-19T01:01:31;25.70;99.90
64501;DHT22;50874;24.150;-110.320;2023-03-19T01:03:58;25.50;99.90
64501;DHT22;50874;24.150;-110.320;2023-03-19T01:06:24;25.40;99.90
64501;DHT22;50874;24.150;-110.320;2023-03-19T01:08:51;25.40;99.90
64501;DHT22;50874;24.150;-110.320;2023-03-19T01:11:17;25.30;99.90
64501;DHT22;50874;24.150;-110.320;2023-03-19T01:13:44;25.20;99.90
64501;DHT22;50874;24.150;-110.320;2023-03-19T01:16:11;25.00;99.90
64501;DHT22;50874;24.150;-110.320;2023-03-19T01:18:38;24.90;99.90
64501;DHT22;50874;24.150;-110.320;2023-03-19T01:21:05;24.80;99.90
64501;DHT22;50874;24.150;-110.320;2023-03-19T01:23:33;24.60;99.90
64501;DHT22;50874;24.150;-110.320;2023-03-19T01:25:59;24.70;99.90
64501;DHT22;50874;24.150;-110.320;2023-03-19T01:28:26;24.60;99.90
64501;DHT22;50874;24.150;-110.320;2023-03-19T01:30:56;24.50;99.90
64501;DHT22;50874;24.150;-110.320;2023-03-19T01:33:23;24.40;99.90
64501;DHT22;50874;24.150;-110.320;2023-03-19T01:35:49;24.30;99.90
64501;DHT22;50874;24.150;-110.320;2023-03-19T01:38:16;24.30;99.90
64501;DHT22;50874;24.150;-110.320;2023-03-19T01:40:44;24.10;99.90
64501;DHT22;50874;24.150;-110.320;2023-03-19T01:43:26;24.10;99.90
64501;DHT22;50874;24.150;-110.320;2023-03-19T01:46:05;24.00;99.90
64501;DHT22;50874;24.150;-110.320;2023-03-19T01:48:50;24.00;99.90
64501;DHT22;50874;24.150;-110.320;2023-03-19T01:51:22;24.00;99.90
64501;DHT22;50874;24.150;-110.320;2023-03-19T01:53:53;24.00;99.90
64501;DHT22;50874;24.150;-110.320;2023-03-19T01:56:27;24.00;99.90
64501;DHT22;50874;24.150;-110.320;2023-03-19T01:59:01;24.00;99.90
64501;DHT22;50874;24.150;-110.320;2023-03-19T02:01:33;24.00;99.90
64501;DHT22;50874;24.150;-110.320;2023-03-19T02:04:00;23.90;99.90
64501;DHT22;50874;24.150;-110.320;2023-03-19T02:06:28;23.70;99.90
64501;DHT22;50874;24.150;-110.320;2023-03-19T02:08:56;23.60;99.90
64501;DHT22;50874;24.150;-110.320;2023-03-19T02:11:23;23.30;99.90
64501;DHT22;50874;24.150;-110.320;2023-03-19T02:13:51;23.30;99.90
64501;DHT22;50874;24.150;-110.320;2023-03-19T02:16:17;23.40;99.90
64501;DHT22;50874;24.150;-110.320;2023-03-19T02:18:44;23.40;99.90
64501;DHT22;50874;24.150;-110.320;2023-03-19T02:21:14;23.40;99.90
64501;DHT22;50874;24.150;-110.320;2023-03-19T02:24:13;23.40;99.90
64501;DHT22;50874;24.150;-110.320;2023-03-19T02:26:43;23.40;99.90
64501;DHT22;50874;24.150;-110.320;2023-03-19T02:29:10;23.40;99.90
64501;DHT22;50874;24.150;-110.320;2023-03-19T02:31:36;23.40;99.90
64501;DHT22;50874;24.150;-110.320;2023-03-19T02:36:46;23.40;99.90
64501;DHT22;50874;24.150;-110.320;2023-03-19T02:39:40;23.40;99.90
64501;DHT22;50874;24.150;-110.320;2023-03-19T02:42:10;23.40;99.90
64501;DHT22;50874;24.150;-110.320;2023-03-19T02:44:37;23.40;99.90
64501;DHT22;50874;24.150;-110.320;2023-03-19T02:47:04;23.30;99.90
64501;DHT22;50874;24.150;-110.320;2023-03-19T02:49:30;23.30;99.90
64501;DHT22;50874;24.150;-110.320;2023-03-19T02:51:57;23.10;99.90
64501;DHT22;50874;24.150;-110.320;2023-03-19T02:54:23;23.00;99.90
64501;DHT22;50874;24.150;-110.320;2023-03-19T02:56:50;22.80;99.90
64501;DHT22;50874;24.150;-110.320;2023-03-19T02:59:18;22.70;99.90
64501;DHT22;50874;24.150;-110.320;2023-03-19T03:01:44;22.80;99.90
64501;DHT22;50874;24.150;-110.320;2023-03-19T03:04:11;22.60;99.90
64501;DHT22;50874;24.150;-110.320;2023-03-19T03:06:39;22.60;99.90
64501;DHT22;50874;24.150;-110.320;2023-03-19T03:09:05;22.70;99.90
64501;DHT22;50874;24.150;-110.320;2023-03-19T03:11:32;22.70;99.90
64501;DHT22;50874;24.150;-110.320;2023-03-19T03:13:58;22.60;99.90
64501;DHT22;50874;24.150;-110.320;2023-03-19T03:16:25;22.60;99.90
64501;DHT22;50874;24.150;-110.320;2023-03-19T03:18:52;22.50;99.90
64501;DHT22;50874;24.150;-110.320;2023-03-19T03:21:19;22.50;99.90
64501;DHT22;50874;24.150;-110.320;2023-03-19T03:23:47;22.40;99.90
64501;DHT22;50874;24.150;-110.320;2023-03-19T03:26:14;22.30;99.90
64501;DHT22;50874;24.150;-110.320;2023-03-19T03:28:40;22.30;99.90
64501;DHT22;50874;24.150;-110.320;2023-03-19T03:31:06;22.10;99.90
64501;DHT22;50874;24.150;-110.320;2023-03-19T03:33:33;22.10;99.90
64501;DHT22;50874;24.150;-110.320;2023-03-19T03:36:00;22.00;99.90
64501;DHT22;50874;24.150;-110.320;2023-03-19T03:38:26;22.00;99.90
64501;DHT22;50874;24.150;-110.320;2023-03-19T03:40:53;22.00;99.90
64501;DHT22;50874;24.150;-110.320;2023-03-19T03:43:20;22.00;99.90
64501;DHT22;50874;24.150;-110.320;2023-03-19T03:45:47;21.90;99.90
64501;DHT22;50874;24.150;-110.320;2023-03-19T03:48:14;21.90;99.90
64501;DHT22;50874;24.150;-110.320;2023-03-19T03:50:41;22.00;99.90
64501;DHT22;50874;24.150;-110.320;2023-03-19T03:53:07;22.00;99.90
64501;DHT22;50874;24.150;-110.320;2023-03-19T03:55:34;21.90;99.90
64501;DHT22;50874;24.150;-110.320;2023-03-19T03:58:01;22.00;99.90
64501;DHT22;50874;24.150;-110.320;2023-03-19T04:00:28;21.90;99.90
64501;DHT22;50874;24.150;-110.320;2023-03-19T04:02:54;21.90;99.90
64501;DHT22;50874;24.150;-110.320;2023-03-19T04:05:21;21.80;99.90
64501;DHT22;50874;24.150;-110.320;2023-03-19T04:07:48;21.80;99.90
64501;DHT22;50874;24.150;-110.320;2023-03-19T04:10:14;21.80;99.90
64501;DHT22;50874;24.150;-110.320;2023-03-19T04:12:40;21.80;99.90
64501;DHT22;50874;24.150;-110.320;2023-03-19T04:15:09;21.80;99.90
64501;DHT22;50874;24.150;-110.320;2023-03-19T04:17:36;21.80;99.90
64501;DHT22;50874;24.150;-110.320;2023-03-19T04:20:03;21.80;99.90
64501;DHT22;50874;24.150;-110.320;2023-03-19T04:22:30;21.80;99.90
64501;DHT22;50874;24.150;-110.320;2023-03-19T04:24:57;21.70;99.90
64501;DHT22;50874;24.150;-110.320;2023-03-19T04:27:23;21.70;99.90
64501;DHT22;50874;24.150;-110.320;2023-03-19T04:29:50;21.70;99.90
64501;DHT22;50874;24.150;-110.320;2023-03-19T04:32:17;21.70;99.90
64501;DHT22;50874;24.150;-110.320;2023-03-19T04:34:43;21.60;99.90
64501;DHT22;50874;24.150;-110.320;2023-03-19T04:37:10;21.60;99.90
64501;DHT22;50874;24.150;-110.320;2023-03-19T04:39:37;21.60;99.90
64501;DHT22;50874;24.150;-110.320;2023-03-19T04:42:04;21.50;99.90
64501;DHT22;50874;24.150;-110.320;2023-03-19T04:44:31;21.40;99.90
64501;DHT22;50874;24.150;-110.320;2023-03-19T04:46:58;21.30;99.90
64501;DHT22;50874;24.150;-110.320;2023-03-19T04:49:24;21.30;99.90
64501;DHT22;50874;24.150;-110.320;2023-03-19T04:51:52;21.20;99.90
64501;DHT22;50874;24.150;-110.320;2023-03-19T04:54:18;21.10;99.90
64501;DHT22;50874;24.150;-110.320;2023-03-19T04:56:45;21.00;99.90
64501;DHT22;50874;24.150;-110.320;2023-03-19T04:59:12;21.00;99.90
64501;DHT22;50874;24.150;-110.320;2023-03-19T05:01:38;20.90;99.90
64501;DHT22;50874;24.150;-110.320;2023-03-19T05:04:05;20.80;99.90
64501;DHT22;50874;24.150;-110.320;2023-03-19T05:06:32;20.80;99.90
64501;DHT22;50874;24.150;-110.320;2023-03-19T05:08:58;20.90;99.90
64501;DHT22;50874;24.150;-110.320;2023-03-19T05:11:25;20.90;99.90
64501;DHT22;50874;24.150;-110.320;2023-03-19T05:13:52;20.90;99.90
64501;DHT22;50874;24.150;-110.320;2023-03-19T05:16:18;20.90;99.90
64501;DHT22;50874;24.150;-110.320;2023-03-19T05:18:45;20.80;99.90
64501;DHT22;50874;24.150;-110.320;2023-03-19T05:21:12;20.80;99.90
64501;DHT22;50874;24.150;-110.320;2023-03-19T05:23:39;20.80;99.90
64501;DHT22;50874;24.150;-110.320;2023-03-19T05:26:06;20.80;99.90
64501;DHT22;50874;24.150;-110.320;2023-03-19T05:28:33;20.70;99.90
64501;DHT22;50874;24.150;-110.320;2023-03-19T05:31:00;20.80;99.90
64501;DHT22;50874;24.150;-110.320;2023-03-19T05:33:26;20.80;99.90
64501;DHT22;50874;24.150;-110.320;2023-03-19T05:35:53;20.90;99.90
64501;DHT22;50874;24.150;-110.320;2023-03-19T05:38:19;20.80;99.90
64501;DHT22;50874;24.150;-110.320;2023-03-19T05:40:46;20.80;99.90
64501;DHT22;50874;24.150;-110.320;2023-03-19T05:43:12;20.80;99.90
64501;DHT22;50874;24.150;-110.320;2023-03-19T05:45:39;20.80;99.90
64501;DHT22;50874;24.150;-110.320;2023-03-19T05:48:07;20.80;99.90
64501;DHT22;50874;24.150;-110.320;2023-03-19T05:50:34;20.70;99.90
64501;DHT22;50874;24.150;-110.320;2023-03-19T05:53:00;20.70;99.90
64501;DHT22;50874;24.150;-110.320;2023-03-19T05:55:27;20.60;99.90
64501;DHT22;50874;24.150;-110.320;2023-03-19T05:57:54;20.60;99.90
64501;DHT22;50874;24.150;-110.320;2023-03-19T06:00:20;20.50;99.90
64501;DHT22;50874;24.150;-110.320;2023-03-19T06:02:47;20.50;99.90
64501;DHT22;50874;24.150;-110.320;2023-03-19T06:05:13;20.50;99.90
64501;DHT22;50874;24.150;-110.320;2023-03-19T06:07:40;20.50;99.90
64501;DHT22;50874;24.150;-110.320;2023-03-19T06:10:08;20.50;99.90
64501;DHT22;50874;24.150;-110.320;2023-03-19T06:12:35;20.50;99.90
64501;DHT22;50874;24.150;-110.320;2023-03-19T06:15:01;20.40;99.90
64501;DHT22;50874;24.150;-110.320;2023-03-19T06:17:28;20.30;99.90
64501;DHT22;50874;24.150;-110.320;2023-03-19T06:19:54;20.20;99.90
64501;DHT22;50874;24.150;-110.320;2023-03-19T06:22:21;20.00;99.90
64501;DHT22;50874;24.150;-110.320;2023-03-19T06:24:47;20.00;99.90
64501;DHT22;50874;24.150;-110.320;2023-03-19T06:27:14;20.00;99.90
64501;DHT22;50874;24.150;-110.320;2023-03-19T06:29:41;20.00;99.90
64501;DHT22;50874;24.150;-110.320;2023-03-19T06:32:07;20.00;99.90
64501;DHT22;50874;24.150;-110.320;2023-03-19T06:34:34;20.00;99.90
64501;DHT22;50874;24.150;-110.320;2023-03-19T06:37:01;20.00;99.90
64501;DHT22;50874;24.150;-110.320;2023-03-19T06:39:27;19.90;99.90
64501;DHT22;50874;24.150;-110.320;2023-03-19T06:41:54;19.90;99.90
64501;DHT22;50874;24.150;-110.320;2023-03-19T06:44:20;19.80;99.90
64501;DHT22;50874;24.150;-110.320;2023-03-19T06:46:47;19.80;99.90
64501;DHT22;50874;24.150;-110.320;2023-03-19T06:49:13;19.70;99.90
64501;DHT22;50874;24.150;-110.320;2023-03-19T06:51:40;19.70;99.90
64501;DHT22;50874;24.150;-110.320;2023-03-19T06:54:06;19.70;99.90
64501;DHT22;50874;24.150;-110.320;2023-03-19T06:56:33;19.70;99.90
64501;DHT22;50874;24.150;-110.320;2023-03-19T06:58:59;19.60;99.90
64501;DHT22;50874;24.150;-110.320;2023-03-19T07:01:26;19.60;99.90
64501;DHT22;50874;24.150;-110.320;2023-03-19T07:03:52;19.50;99.90
64501;DHT22;50874;24.150;-110.320;2023-03-19T07:06:19;19.40;99.90
64501;DHT22;50874;24.150;-110.320;2023-03-19T07:08:45;19.30;99.90
64501;DHT22;50874;24.150;-110.320;2023-03-19T07:11:13;19.20;99.90
64501;DHT22;50874;24.150;-110.320;2023-03-19T07:13:39;19.00;99.90
64501;DHT22;50874;24.150;-110.320;2023-03-19T07:16:06;18.90;99.90
64501;DHT22;50874;24.150;-110.320;2023-03-19T07:18:33;18.80;99.90
64501;DHT22;50874;24.150;-110.320;2023-03-19T07:21:00;18.70;99.90
64501;DHT22;50874;24.150;-110.320;2023-03-19T07:23:26;18.70;99.90
64501;DHT22;50874;24.150;-110.320;2023-03-19T07:25:53;18.80;99.90
64501;DHT22;50874;24.150;-110.320;2023-03-19T07:28:19;18.80;99.90
64501;DHT22;50874;24.150;-110.320;2023-03-19T07:30:46;18.90;99.90
64501;DHT22;50874;24.150;-110.320;2023-03-19T07:33:13;18.90;99.90
64501;DHT22;50874;24.150;-110.320;2023-03-19T07:35:39;19.00;99.90
64501;DHT22;50874;24.150;-110.320;2023-03-19T07:38:06;19.00;99.90
64501;DHT22;50874;24.150;-110.320;2023-03-19T07:40:32;19.00;99.90
64501;DHT22;50874;24.150;-110.320;2023-03-19T07:42:58;18.90;99.90
64501;DHT22;50874;24.150;-110.320;2023-03-19T07:45:25;18.90;99.90
64501;DHT22;50874;24.150;-110.320;2023-03-19T07:47:51;18.80;99.90
64501;DHT22;50874;24.150;-110.320;2023-03-19T07:50:18;18.80;99.90
64501;DHT22;50874;24.150;-110.320;2023-03-19T07:52:45;18.80;99.90
64501;DHT22;50874;24.150;-110.320;2023-03-19T07:55:13;18.80;99.90
64501;DHT22;50874;24.150;-110.320;2023-03-19T07:57:40;18.80;99.90
64501;DHT22;50874;24.150;-110.320;2023-03-19T08:00:08;18.80;99.90
64501;DHT22;50874;24.150;-110.320;2023-03-19T08:02:35;18.70;99.90
64501;DHT22;50874;24.150;-110.320;2023-03-19T08:05:02;18.70;99.90
64501;DHT22;50874;24.150;-110.320;2023-03-19T08:07:30;18.60;99.90
64501;DHT22;50874;24.150;-110.320;2023-03-19T08:09:57;18.50;99.90
64501;DHT22;50874;24.150;-110.320;2023-03-19T08:12:24;18.40;99.90
64501;DHT22;50874;24.150;-110.320;2023-03-19T08:14:51;18.30;99.90
64501;DHT22;50874;24.150;-110.320;2023-03-19T08:17:17;18.30;99.90
64501;DHT22;50874;24.150;-110.320;2023-03-19T08:19:44;18.30;99.90
64501;DHT22;50874;24.150;-110.320;2023-03-19T08:22:11;18.30;99.90
64501;DHT22;50874;24.150;-110.320;2023-03-19T08:24:38;18.30;99.90
64501;DHT22;50874;24.150;-110.320;2023-03-19T08:27:04;18.20;99.90
64501;DHT22;50874;24.150;-110.320;2023-03-19T08:29:31;18.20;99.90
64501;DHT22;50874;24.150;-110.320;2023-03-19T08:31:58;18.20;99.90
64501;DHT22;50874;24.150;-110.320;2023-03-19T08:34:26;18.20;99.90
64501;DHT22;50874;24.150;-110.320;2023-03-19T08:36:52;18.20;99.90
64501;DHT22;50874;24.150;-110.320;2023-03-19T08:39:19;18.20;99.90
64501;DHT22;50874;24.150;-110.320;2023-03-19T08:41:45;18.20;99.90
64501;DHT22;50874;24.150;-110.320;2023-03-19T08:44:12;18.10;99.90
64501;DHT22;50874;24.150;-110.320;2023-03-19T08:46:39;18.20;99.90
64501;DHT22;50874;24.150;-110.320;2023-03-19T08:49:07;18.10;99.90
64501;DHT22;50874;24.150;-110.320;2023-03-19T08:51:33;18.10;99.90
64501;DHT22;50874;24.150;-110.320;2023-03-19T08:54:00;18.10;99.90
64501;DHT22;50874;24.150;-110.320;2023-03-19T08:56:26;18.00;99.90
64501;DHT22;50874;24.150;-110.320;2023-03-19T08:58:55;17.90;99.90
64501;DHT22;50874;24.150;-110.320;2023-03-19T09:01:22;17.80;99.90
64501;DHT22;50874;24.150;-110.320;2023-03-19T09:03:49;17.80;99.90
64501;DHT22;50874;24.150;-110.320;2023-03-19T09:06:15;17.80;99.90
64501;DHT22;50874;24.150;-110.320;2023-03-19T09:08:42;17.80;99.90
64501;DHT22;50874;24.150;-110.320;2023-03-19T09:11:09;17.70;99.90
64501;DHT22;50874;24.150;-110.320;2023-03-19T09:13:36;17.60;99.90
64501;DHT22;50874;24.150;-110.320;2023-03-19T09:16:03;17.60;99.90
64501;DHT22;50874;24.150;-110.320;2023-03-19T09:18:30;17.60;99.90
64501;DHT22;50874;24.150;-110.320;2023-03-19T09:20:57;17.50;99.90
64501;DHT22;50874;24.150;-110.320;2023-03-19T09:23:24;17.40;99.90
64501;DHT22;50874;24.150;-110.320;2023-03-19T09:25:50;17.10;99.90
64501;DHT22;50874;24.150;-110.320;2023-03-19T09:28:17;17.00;99.90
64501;DHT22;50874;24.150;-110.320;2023-03-19T09:30:48;16.90;99.90
64501;DHT22;50874;24.150;-110.320;2023-03-19T09:33:16;16.90;99.90
64501;DHT22;50874;24.150;-110.320;2023-03-19T09:35:47;16.80;99.90
64501;DHT22;50874;24.150;-110.320;2023-03-19T09:38:14;16.80;99.90
64501;DHT22;50874;24.150;-110.320;2023-03-19T09:40:44;16.80;99.90
64501;DHT22;50874;24.150;-110.320;2023-03-19T09:43:33;16.80;99.90
64501;DHT22;50874;24.150;-110.320;2023-03-19T09:46:55;16.80;99.90
64501;DHT22;50874;24.150;-110.320;2023-03-19T09:49:09;16.80;99.90
64501;DHT22;50874;24.150;-110.320;2023-03-19T09:54:31;17.00;99.90
64501;DHT22;50874;24.150;-110.320;2023-03-19T09:56:59;17.00;99.90
64501;DHT22;50874;24.150;-110.320;2023-03-19T09:59:27;17.00;99.90
64501;DHT22;50874;24.150;-110.320;2023-03-19T10:02:42;17.10;99.90
64501;DHT22;50874;24.150;-110.320;2023-03-19T10:04:55;17.10;99.90
64501;DHT22;50874;24.150;-110.320;2023-03-19T10:07:45;17.10;99.90
64501;DHT22;50874;24.150;-110.320;2023-03-19T10:15:46;17.20;99.90
64501;DHT22;50874;24.150;-110.320;2023-03-19T10:18:34;17.20;99.90
64501;DHT22;50874;24.150;-110.320;2023-03-19T10:21:12;17.20;99.90
64501;DHT22;50874;24.150;-110.320;2023-03-19T10:24:26;17.20;99.90
64501;DHT22;50874;24.150;-110.320;2023-03-19T10:27:00;17.20;99.90
64501;DHT22;50874;24.150;-110.320;2023-03-19T10:29:28;17.30;99.90
64501;DHT22;50874;24.150;-110.320;2023-03-19T10:34:45;17.30;99.90
64501;DHT22;50874;24.150;-110.320;2023-03-19T10:37:17;17.20;99.90
64501;DHT22;50874;24.150;-110.320;2023-03-19T10:39:47;17.10;99.90
64501;DHT22;50874;24.150;-110.320;2023-03-19T10:47:44;17.10;99.90
64501;DHT22;50874;24.150;-110.320;2023-03-19T10:50:20;17.10;99.90
64501;DHT22;50874;24.150;-110.320;2023-03-19T10:52:55;17.00;99.90
64501;DHT22;50874;24.150;-110.320;2023-03-19T10:55:28;16.90;99.90
64501;DHT22;50874;24.150;-110.320;2023-03-19T10:58:05;16.90;99.90
64501;DHT22;50874;24.150;-110.320;2023-03-19T11:00:33;16.90;99.90
64501;DHT22;50874;24.150;-110.320;2023-03-19T11:03:01;16.80;99.90
64501;DHT22;50874;24.150;-110.320;2023-03-19T11:05:32;16.80;99.90
64501;DHT22;50874;24.150;-110.320;2023-03-19T11:08:04;16.80;99.90
64501;DHT22;50874;24.150;-110.320;2023-03-19T11:10:35;16.70;99.90
64501;DHT22;50874;24.150;-110.320;2023-03-19T11:13:06;16.60;99.90
64501;DHT22;50874;24.150;-110.320;2023-03-19T11:15:41;16.50;99.90
64501;DHT22;50874;24.150;-110.320;2023-03-19T11:18:20;16.40;99.90
64501;DHT22;50874;24.150;-110.320;2023-03-19T11:20:59;16.30;99.90
64501;DHT22;50874;24.150;-110.320;2023-03-19T11:23:28;16.20;99.90
64501;DHT22;50874;24.150;-110.320;2023-03-19T11:25:59;16.10;99.90
64501;DHT22;50874;24.150;-110.320;2023-03-19T11:28:29;16.10;99.90
64501;DHT22;50874;24.150;-110.320;2023-03-19T11:41:51;16.20;99.90
64501;DHT22;50874;24.150;-110.320;2023-03-19T11:47:01;16.30;99.90
64501;DHT22;50874;24.150;-110.320;2023-03-19T12:18:47;17.00;99.90
64501;DHT22;50874;24.150;-110.320;2023-03-19T12:27:25;17.00;99.90
64501;DHT22;50874;24.150;-110.320;2023-03-19T12:35:32;17.00;99.90
64501;DHT22;50874;24.150;-110.320;2023-03-19T12:40:46;16.90;99.90
64501;DHT22;50874;24.150;-110.320;2023-03-19T12:43:43;16.90;99.90
64501;DHT22;50874;24.150;-110.320;2023-03-19T12:48:55;16.70;99.90
64501;DHT22;50874;24.150;-110.320;2023-03-19T12:51:26;16.50;99.90
64501;DHT22;50874;24.150;-110.320;2023-03-19T12:54:02;16.30;99.90
64501;DHT22;50874;24.150;-110.320;2023-03-19T12:56:48;16.20;99.90
64501;DHT22;50874;24.150;-110.320;2023-03-19T12:59:44;16.20;99.90
64501;DHT22;50874;24.150;-110.320;2023-03-19T13:02:59;16.10;99.90
64501;DHT22;50874;24.150;-110.320;2023-03-19T13:08:39;16.10;99.90
64501;DHT22;50874;24.150;-110.320;2023-03-19T13:11:31;16.10;99.90
64501;DHT22;50874;24.150;-110.320;2023-03-19T13:16:38;16.10;99.90
64501;DHT22;50874;24.150;-110.320;2023-03-19T13:19:20;16.10;99.90
64501;DHT22;50874;24.150;-110.320;2023-03-19T13:21:53;16.10;99.90
64501;DHT22;50874;24.150;-110.320;2023-03-19T13:24:30;16.10;99.90
64501;DHT22;50874;24.150;-110.320;2023-03-19T13:27:00;16.20;99.90
64501;DHT22;50874;24.150;-110.320;2023-03-19T13:29:31;16.20;99.90
64501;DHT22;50874;24.150;-110.320;2023-03-19T13:32:08;16.20;99.90
64501;DHT22;50874;24.150;-110.320;2023-03-19T13:34:47;16.20;99.90
64501;DHT22;50874;24.150;-110.320;2023-03-19T13:37:16;16.10;99.90
64501;DHT22;50874;24.150;-110.320;2023-03-19T13:39:44;16.10;99.90
64501;DHT22;50874;24.150;-110.320;2023-03-19T13:42:38;16.10;99.90
64501;DHT22;50874;24.150;-110.320;2023-03-19T13:47:47;16.20;99.90
64501;DHT22;50874;24.150;-110.320;2023-03-19T13:50:30;16.20;99.90
64501;DHT22;50874;24.150;-110.320;2023-03-19T13:53:41;16.30;99.90
64501;DHT22;50874;24.150;-110.320;2023-03-19T13:56:17;16.30;99.90
64501;DHT22;50874;24.150;-110.320;2023-03-19T13:58:50;16.30;99.90
64501;DHT22;50874;24.150;-110.320;2023-03-19T14:06:40;16.60;99.90
64501;DHT22;50874;24.150;-110.320;2023-03-19T14:09:40;16.70;99.90
64501;DHT22;50874;24.150;-110.320;2023-03-19T14:12:10;16.80;99.90
64501;DHT22;50874;24.150;-110.320;2023-03-19T14:20:22;17.20;99.90
64501;DHT22;50874;24.150;-110.320;2023-03-19T14:23:25;17.80;99.90
64501;DHT22;50874;24.150;-110.320;2023-03-19T14:26:05;18.60;99.90
64501;DHT22;50874;24.150;-110.320;2023-03-19T14:28:44;19.30;99.90
64501;DHT22;50874;24.150;-110.320;2023-03-19T14:31:22;19.80;99.90
64501;DHT22;50874;24.150;-110.320;2023-03-19T14:36:48;21.10;99.90
64501;DHT22;50874;24.150;-110.320;2023-03-19T14:39:42;21.70;99.90
64501;DHT22;50874;24.150;-110.320;2023-03-19T14:42:26;22.40;99.90
64501;DHT22;50874;24.150;-110.320;2023-03-19T14:53:18;24.00;99.90
64501;DHT22;50874;24.150;-110.320;2023-03-19T14:55:51;24.40;99.90
64501;DHT22;50874;24.150;-110.320;2023-03-19T14:58:21;24.60;99.90
64501;DHT22;50874;24.150;-110.320;2023-03-19T15:00:49;24.40;99.90
64501;DHT22;50874;24.150;-110.320;2023-03-19T15:03:34;24.60;99.90
64501;DHT22;50874;24.150;-110.320;2023-03-19T15:06:06;25.10;99.90
64501;DHT22;50874;24.150;-110.320;2023-03-19T15:08:37;25.60;99.90
64501;DHT22;50874;24.150;-110.320;2023-03-19T15:19:08;26.30;99.90
64501;DHT22;50874;24.150;-110.320;2023-03-19T15:21:36;26.10;99.90
64501;DHT22;50874;24.150;-110.320;2023-03-19T15:24:04;26.10;99.90
64501;DHT22;50874;24.150;-110.320;2023-03-19T15:26:36;26.20;99.90
64501;DHT22;50874;24.150;-110.320;2023-03-19T15:29:03;26.60;99.90
64501;DHT22;50874;24.150;-110.320;2023-03-19T15:31:48;26.70;99.90
64501;DHT22;50874;24.150;-110.320;2023-03-19T15:34:25;27.00;99.90
64501;DHT22;50874;24.150;-110.320;2023-03-19T15:36:57;27.20;99.90
64501;DHT22;50874;24.150;-110.320;2023-03-19T15:39:28;27.60;99.90
64501;DHT22;50874;24.150;-110.320;2023-03-19T15:41:56;27.60;99.90
64501;DHT22;50874;24.150;-110.320;2023-03-19T15:44:30;27.90;99.90
64501;DHT22;50874;24.150;-110.320;2023-03-19T15:47:02;28.00;99.90
64501;DHT22;50874;24.150;-110.320;2023-03-19T15:49:55;28.50;99.90
64501;DHT22;50874;24.150;-110.320;2023-03-19T15:52:25;28.70;99.90
64501;DHT22;50874;24.150;-110.320;2023-03-19T15:54:54;28.90;99.90
64501;DHT22;50874;24.150;-110.320;2023-03-19T15:57:23;29.20;99.50
64501;DHT22;50874;24.150;-110.320;2023-03-19T15:59:55;29.20;98.60
64501;DHT22;50874;24.150;-110.320;2023-03-19T16:04:52;29.70;96.70
64501;DHT22;50874;24.150;-110.320;2023-03-19T16:07:31;30.10;96.30
64501;DHT22;50874;24.150;-110.320;2023-03-19T16:10:20;30.30;96.30
64501;DHT22;50874;24.150;-110.320;2023-03-19T16:12:50;30.20;96.00
64501;DHT22;50874;24.150;-110.320;2023-03-19T16:15:44;29.90;95.70
64501;DHT22;50874;24.150;-110.320;2023-03-19T16:20:43;30.20;95.30
64501;DHT22;50874;24.150;-110.320;2023-03-19T16:23:17;30.50;95.10
64501;DHT22;50874;24.150;-110.320;2023-03-19T16:25:45;30.40;94.20
64501;DHT22;50874;24.150;-110.320;2023-03-19T16:28:16;30.50;94.40
64501;DHT22;50874;24.150;-110.320;2023-03-19T16:30:47;30.20;94.00
64501;DHT22;50874;24.150;-110.320;2023-03-19T16:33:14;30.30;94.00
64501;DHT22;50874;24.150;-110.320;2023-03-19T16:35:41;30.70;93.70
64501;DHT22;50874;24.150;-110.320;2023-03-19T16:38:23;30.80;93.10
64501;DHT22;50874;24.150;-110.320;2023-03-19T16:41:22;31.20;92.50
64501;DHT22;50874;24.150;-110.320;2023-03-19T16:43:52;31.60;91.90
64501;DHT22;50874;24.150;-110.320;2023-03-19T16:46:19;31.80;91.40
64501;DHT22;50874;24.150;-110.320;2023-03-19T16:48:46;32.30;91.40
64501;DHT22;50874;24.150;-110.320;2023-03-19T16:51:15;31.50;93.40
64501;DHT22;50874;24.150;-110.320;2023-03-19T16:53:42;31.60;94.00
64501;DHT22;50874;24.150;-110.320;2023-03-19T16:56:12;31.20;94.90
64501;DHT22;50874;24.150;-110.320;2023-03-19T16:58:42;30.90;95.40
64501;DHT22;50874;24.150;-110.320;2023-03-19T17:03:43;31.50;95.10
64501;DHT22;50874;24.150;-110.320;2023-03-19T17:06:11;31.60;94.80
64501;DHT22;50874;24.150;-110.320;2023-03-19T17:08:38;31.50;94.70
64501;DHT22;50874;24.150;-110.320;2023-03-19T17:11:06;31.80;94.30